Impacts TAF Board INFO
FOR SITUATIONAL AWARENESS. NOT TO BE USED FOR FLIGHT PLANNING PURPOSES.
IDs:

KCLE - Cleveland/Hopkins In, OH, US

Issued at 1720 UTC 25 May 2018
Updated at 2204 UTC 25 May 2018
Potential Impact None Slight Moderate High
Time<<26/23Z 27/00Z 27/01Z 27/02Z 27/03Z 27/04Z 27/05Z 27/06Z 27/07Z 27/08Z 27/09Z 27/10Z 27/11Z
Type PRVL
VIS >6
CIG 50
Cover BKN
FltCat VFR
WX VCTS
WDir 180
WSpd 6
WGst --

Raw TAF
KCLE 251720Z 2518/2624 18006KT P6SM SKC
  FM260100 19004KT P6SM SKC
  FM261400 23006KT P6SM BKN080
  FM261800 18006KT P6SM VCTS BKN050CB
  TEMPO 2618/2622 6SM -SHRA OVC025


METAR Board
Radar Display
Forecast Discussion

FOR SITUATIONAL AWARENESS. NOT TO BE USED FOR FLIGHT PLANNING PURPOSES.